Time;durP1;ratioP1;P1;durP2;ratioP2;P2;SDS_P1;SDS_P2;PMS_P1;PMS_P2;Temp;Humidity;BMP_temperature;BMP_pressure;BME280_temperature;BME280_humidity;BME280_pressure;Samples;Min_cycle;Max_cycle;Signal;HPM_P1;HPM_P2
2022/09/20 00:01:34;;;;;;;;;;;10.70;53.00;;;6.19;90.58;95982.66;4951820;29;19910;-47
2022/09/20 00:04:03;;;;;;;;;;;10.70;53.10;;;6.17;90.21;95984.72;4952194;29;20423;-46
2022/09/20 00:06:33;;;;;;;;;;;10.60;53.10;;;6.07;91.52;95985.28;4930854;29;19914;-45
2022/09/20 00:09:00;;;;;;;;;;;10.60;53.20;;;6.02;91.05;95983.31;4965138;28;19933;-46
2022/09/20 00:11:30;;;;;;;;;;;10.50;53.30;;;5.94;90.71;95980.97;4904163;28;1791492;-50
2022/09/20 00:13:58;;;;;;;;;;;10.50;53.40;;;5.88;90.85;95986.34;4952109;28;19920;-46
2022/09/20 00:16:34;;;;;;;;;;;10.40;53.40;;;5.80;91.28;95979.53;4951722;28;19914;-45
2022/09/20 00:19:05;;;;;;;;;;;10.30;53.50;;;5.73;91.92;95976.97;4964225;28;19982;-46
2022/09/20 00:21:36;;;;;;;;;;;10.30;53.60;;;5.69;91.81;95977.66;4947686;28;19910;-45
2022/09/20 00:24:02;;;;;;;;;;;10.20;53.70;;;5.65;91.66;95979.94;4966413;28;19920;-45
2022/09/20 00:26:28;;;;;;;;;;;10.20;53.90;;;5.60;92.07;95977.16;4966999;28;19918;-45
2022/09/20 00:28:59;;;;;;;;;;;10.10;53.90;;;5.57;92.06;95981.03;4950395;29;19914;-45
2022/09/20 00:31:25;;;;;;;;;;;10.10;54.10;;;5.56;91.93;95978.63;4935600;29;19921;-45
2022/09/20 00:36:48;;;;;;;;;;;10.00;54.10;;;5.41;92.04;95981.66;4952235;28;19917;-44
2022/09/20 00:39:17;;;;;;;;;;;10.00;54.20;;;5.33;92.10;95977.47;4954909;28;20018;-44
2022/09/20 00:41:48;;;;;;;;;;;10.00;54.30;;;5.29;92.46;95984.22;4954465;28;19917;-44
2022/09/20 00:44:54;;;;;;;;;;;9.90;54.30;;;5.24;92.83;95976.16;4968547;28;20005;-44
2022/09/20 00:47:57;;;;;;;;;;;9.80;54.40;;;5.21;93.09;95978.44;4958258;28;19918;-44
2022/09/20 00:50:40;;;;;;;;;;;9.80;54.60;;;5.17;93.52;95975.44;4970974;28;19909;-44
2022/09/20 00:53:30;;;;;;;;;;;9.70;54.60;;;5.15;94.13;95979.34;4962354;28;20300;-44
2022/09/20 00:56:26;;;;;;;;;;;9.70;54.80;;;5.13;95.10;95970.81;4957301;28;19910;-44
2022/09/20 00:59:24;;;;;;;;;;;9.70;54.90;;;5.13;95.82;95963.69;4954726;28;19956;-46
2022/09/20 01:02:25;;;;;;;;;;;9.70;55.10;;;5.13;96.56;95963.69;4938866;28;20515;-44
2022/09/20 01:05:00;;;;;;;;;;;9.70;55.10;;;5.17;95.68;95970.16;4965445;28;19956;-45
2022/09/20 01:07:34;;;;;;;;;;;9.70;55.80;;;5.18;95.37;95968.31;4955487;28;20289;-44
2022/09/20 01:10:07;;;;;;;;;;;9.60;55.20;;;5.17;94.80;95969.34;4954511;28;19910;-43
2022/09/20 01:12:34;;;;;;;;;;;9.60;55.30;;;5.15;94.90;95966.13;4980767;28;19949;-44
2022/09/20 01:15:04;;;;;;;;;;;9.60;55.30;;;5.10;94.94;95966.78;4954956;28;20013;-44
2022/09/20 01:17:35;;;;;;;;;;;9.60;55.40;;;5.07;95.18;95967.22;4953790;28;19961;-44
2022/09/20 01:20:04;;;;;;;;;;;9.60;55.40;;;5.06;95.34;95961.13;4955482;28;19914;-44
2022/09/20 01:23:10;;;;;;;;;;;9.60;55.40;;;5.07;95.19;95959.28;4954989;28;19917;-45
2022/09/20 01:25:48;;;;;;;;;;;9.60;55.50;;;5.05;95.28;95959.53;4944850;28;19929;-45
2022/09/20 01:28:15;;;;;;;;;;;9.50;55.60;;;5.03;95.22;95960.75;4969977;28;19914;-48
2022/09/20 01:31:13;;;;;;;;;;;9.50;55.70;;;4.99;95.34;95957.75;4970098;28;19914;-45
2022/09/20 01:34:11;;;;;;;;;;;9.50;55.70;;;4.94;95.57;95960.25;4955715;28;20416;-44
2022/09/20 01:37:01;;;;;;;;;;;9.50;55.80;;;4.92;95.36;95950.91;4955247;28;19961;-46
2022/09/20 01:40:04;;;;;;;;;;;9.50;55.80;;;4.88;95.68;95950.56;4954631;28;20321;-46
2022/09/20 01:42:37;;;;;;;;;;;9.40;55.90;;;4.87;95.76;95954.22;4969551;28;19918;-46
2022/09/20 01:45:31;;;;;;;;;;;9.40;56.00;;;4.84;95.44;95949.41;4954478;28;20390;-45
2022/09/20 01:48:08;;;;;;;;;;;9.40;56.00;;;4.80;95.76;95951.66;4954838;28;19918;-45
2022/09/20 01:51:37;;;;;;;;;;;9.40;56.10;;;4.75;96.08;95948.88;4936231;28;19910;-45
2022/09/20 01:54:42;;;;;;;;;;;9.30;56.10;;;4.72;96.35;95944.03;4939382;28;19914;-46
2022/09/20 01:58:00;;;;;;;;;;;9.30;56.20;;;4.69;96.26;95944.47;4955357;28;19914;-47
2022/09/20 02:01:23;;;;;;;;;;;9.30;56.30;;;4.66;96.31;95949.38;4980983;28;19917;-47
2022/09/20 02:04:32;;;;;;;;;;;9.30;56.40;;;4.62;96.27;95957.72;4953903;28;19910;-44
2022/09/20 02:07:54;;;;;;;;;;;9.20;56.50;;;4.59;97.00;95955.50;4943251;28;20393;-44
2022/09/20 02:11:16;;;;;;;;;;;9.20;56.60;;;4.61;97.34;95948.19;4951967;28;19918;-46
2022/09/20 02:14:33;;;;;;;;;;;9.10;56.70;;;4.62;97.98;95951.63;4946850;28;19917;-48
2022/09/20 02:17:58;;;;;;;;;;;9.10;56.80;;;4.65;99.01;95959.13;4946050;28;19917;-46
2022/09/20 02:20:41;;;;;;;;;;;9.10;56.90;;;4.70;99.34;95958.47;4948154;28;19910;-47
2022/09/20 02:23:32;;;;;;;;;;;9.10;57.00;;;4.71;99.11;95950.34;4954049;28;19914;-46
2022/09/20 02:26:39;;;;;;;;;;;9.20;57.10;;;4.73;99.88;95950.09;4954161;28;20284;-46
2022/09/20 02:29:42;;;;;;;;;;;9.20;57.10;;;4.77;99.70;95946.81;4927724;28;20036;-47
2022/09/20 02:32:49;;;;;;;;;;;9.20;57.20;;;4.78;99.65;95953.72;4953959;28;20397;-46
2022/09/20 02:35:32;;;;;;;;;;;9.20;57.20;;;4.78;99.06;95950.28;4953206;28;20451;-47
2022/09/20 02:39:06;;;;;;;;;;;9.20;57.30;;;4.73;98.91;95950.94;4969034;28;19914;-45
2022/09/20 02:41:40;;;;;;;;;;;9.20;57.30;;;4.71;98.85;95950.34;4949002;28;20045;-44
2022/09/20 02:44:33;;;;;;;;;;;9.20;57.30;;;4.70;98.99;95951.38;4968944;28;19999;-47
2022/09/20 02:47:42;;;;;;;;;;;9.20;57.40;;;4.68;98.82;95952.59;4952111;28;19914;-46
2022/09/20 02:50:23;;;;;;;;;;;9.20;57.40;;;4.63;98.28;95951.41;4936795;28;19993;-46
2022/09/20 02:53:23;;;;;;;;;;;9.20;57.50;;;4.59;97.88;95957.34;4956170;28;19941;-49
2022/09/20 02:56:19;;;;;;;;;;;9.20;57.50;;;4.51;97.33;95957.63;4953863;28;20377;-50
2022/09/20 02:59:44;;;;;;;;;;;9.20;57.50;;;4.43;97.08;95963.19;4955703;28;20353;-47
2022/09/20 03:02:35;;;;;;;;;;;9.10;57.40;;;4.36;97.23;95958.78;4952627;28;19914;-46
2022/09/20 03:05:29;;;;;;;;;;;9.00;57.40;;;4.29;97.51;95968.56;4952734;28;19918;-49
2022/09/20 03:08:19;;;;;;;;;;;9.00;57.50;;;4.30;98.86;95964.91;4952388;28;19918;-47
2022/09/20 03:11:24;;;;;;;;;;;9.00;57.60;;;4.38;99.87;95963.81;4966568;28;19964;-46
2022/09/20 03:14:41;;;;;;;;;;;8.90;57.60;;;4.39;99.43;95968.91;4944524;28;19957;-48
2022/09/20 03:17:41;;;;;;;;;;;8.90;57.70;;;4.35;99.60;95972.97;4957150;28;19944;-47
2022/09/20 03:20:54;;;;;;;;;;;8.90;57.80;;;4.33;99.31;95975.03;4952023;28;19917;-47
2022/09/20 03:23:29;;;;;;;;;;;8.90;57.80;;;4.26;99.11;95979.56;4966961;28;19914;-49
2022/09/20 03:26:26;;;;;;;;;;;8.80;57.80;;;4.26;100.00;95981.38;4968014;28;19949;-48
2022/09/20 03:29:16;;;;;;;;;;;8.80;57.90;;;4.28;100.00;95980.13;4954496;28;19918;-50
2022/09/20 03:32:04;;;;;;;;;;;8.80;58.00;;;4.28;100.00;95968.78;4952902;28;19920;-46
2022/09/20 03:35:07;;;;;;;;;;;8.80;58.00;;;4.27;100.00;95970.63;4936714;28;19988;-47
2022/09/20 03:38:26;;;;;;;;;;;8.80;58.70;;;4.25;100.00;95972.66;4953326;28;19916;-46
2022/09/20 03:41:30;;;;;;;;;;;8.80;58.20;;;4.23;100.00;95971.25;4946409;28;19916;-49
2022/09/20 03:44:03;;;;;;;;;;;8.70;58.10;;;4.20;100.00;95974.31;4953032;28;19910;-47
2022/09/20 03:46:45;;;;;;;;;;;8.70;58.20;;;4.17;100.00;95983.47;4946492;28;19945;-47
2022/09/20 03:49:32;;;;;;;;;;;8.70;58.20;;;4.15;100.00;95985.50;4953126;28;19914;-49
2022/09/20 03:52:15;;;;;;;;;;;8.70;58.20;;;4.07;99.91;95975.22;4952433;28;19961;-48
2022/09/20 03:55:05;;;;;;;;;;;8.70;58.30;;;3.96;100.00;95978.56;4973084;28;19916;-45
2022/09/20 03:58:12;;;;;;;;;;;8.60;58.20;;;3.96;100.00;95973.28;4953030;28;19914;-47
2022/09/20 04:00:58;;;;;;;;;;;8.60;58.30;;;3.93;100.00;95977.16;4952072;28;19914;-48
2022/09/20 04:04:28;;;;;;;;;;;8.50;58.30;;;3.91;100.00;95971.28;4967639;28;19910;-45
2022/09/20 04:07:40;;;;;;;;;;;8.50;58.40;;;3.85;99.78;95966.84;4940677;28;19936;-51
2022/09/20 04:10:45;;;;;;;;;;;8.50;58.50;;;3.78;99.68;95966.09;4951715;28;19921;-49
2022/09/20 04:13:37;;;;;;;;;;;8.40;58.50;;;3.74;99.86;95970.19;4952097;28;20365;-48
2022/09/20 04:16:44;;;;;;;;;;;8.40;58.60;;;3.68;99.77;95966.56;4966912;28;19910;-46
2022/09/20 04:19:56;;;;;;;;;;;8.30;58.60;;;3.61;99.51;95971.06;4949716;28;19914;-48
2022/09/20 04:22:35;;;;;;;;;;;8.30;58.70;;;3.60;99.34;95972.06;4950936;28;19910;-48
2022/09/20 04:25:35;;;;;;;;;;;8.20;58.70;;;3.56;100.00;95981.41;4959634;28;20008;-45
2022/09/20 04:28:37;;;;;;;;;;;8.20;58.70;;;3.60;100.00;95979.97;4951493;29;19928;-46
2022/09/20 04:31:44;;;;;;;;;;;8.20;58.80;;;3.65;100.00;95985.41;4941089;29;19917;-47
2022/09/20 04:37:37;;;;;;;;;;;8.20;58.90;;;3.63;100.00;95984.81;4938893;29;19961;-46
2022/09/20 04:40:47;;;;;;;;;;;8.20;59.00;;;3.60;100.00;95986.03;4951826;29;19910;-46
2022/09/20 04:43:40;;;;;;;;;;;8.20;59.00;;;3.60;100.00;95987.88;4946800;29;19917;-47
2022/09/20 04:46:40;;;;;;;;;;;8.10;59.00;;;3.60;100.00;95986.03;4952791;29;20324;-44
2022/09/20 04:49:34;;;;;;;;;;;8.10;59.10;;;3.59;100.00;95988.91;4942340;29;19914;-46
2022/09/20 04:52:56;;;;;;;;;;;8.10;59.10;;;3.57;100.00;95989.09;4966666;28;19969;-46
2022/09/20 04:55:54;;;;;;;;;;;8.10;59.20;;;3.60;100.00;95993.13;4940213;29;19910;-47
2022/09/20 04:58:57;;;;;;;;;;;8.10;59.30;;;3.59;100.00;95996.78;4966351;28;19914;-47
2022/09/20 05:02:10;;;;;;;;;;;8.10;59.30;;;3.52;100.00;96004.72;4951767;28;19910;-46
2022/09/20 05:04:54;;;;;;;;;;;8.10;59.30;;;3.51;100.00;95999.66;4952584;28;20025;-51
2022/09/20 05:07:47;;;;;;;;;;;8.10;59.40;;;3.55;100.00;96000.88;4959301;28;19917;-48
2022/09/20 05:10:56;;;;;;;;;;;8.10;59.40;;;3.58;100.00;96009.16;4951187;28;19917;-46
2022/09/20 05:13:34;;;;;;;;;;;8.10;59.60;;;3.60;100.00;96006.31;4956764;28;20324;-44
2022/09/20 05:16:56;;;;;;;;;;;8.10;59.60;;;3.60;100.00;96008.94;4966549;28;19921;-44
2022/09/20 05:19:44;;;;;;;;;;;8.10;59.60;;;3.55;100.00;96003.50;4951205;29;19918;-48
2022/09/20 05:22:12;;;;;;;;;;;8.10;59.50;;;3.48;100.00;96012.25;4951231;29;19956;-45
2022/09/20 05:25:18;;;;;;;;;;;8.10;59.50;;;3.43;100.00;96009.44;4968543;28;19936;-46
2022/09/20 05:28:22;;;;;;;;;;;8.10;59.50;;;3.41;100.00;96008.81;4955622;28;20385;-46
2022/09/20 05:31:12;;;;;;;;;;;8.10;59.60;;;3.43;100.00;96008.63;4844234;28;20822;-44
2022/09/20 05:34:21;;;;;;;;;;;8.10;59.60;;;3.45;100.00;96012.66;4954792;28;20329;-48
2022/09/20 05:37:41;;;;;;;;;;;8.10;59.60;;;3.46;100.00;96016.09;4917135;28;19926;-45
2022/09/20 05:40:43;;;;;;;;;;;8.10;59.60;;;3.50;100.00;96022.56;4953744;28;19910;-46
2022/09/20 05:43:49;;;;;;;;;;;8.20;59.80;;;3.55;100.00;96028.03;4955170;28;20006;-46
2022/09/20 05:47:14;;;;;;;;;;;8.20;59.80;;;3.59;100.00;96021.31;4953344;28;19910;-45
2022/09/20 05:49:49;;;;;;;;;;;8.30;59.90;;;3.62;100.00;96018.25;4948092;28;19960;-45
2022/09/20 05:52:58;;;;;;;;;;;8.30;59.90;;;3.64;100.00;96015.44;4969444;28;20296;-45
2022/09/20 05:56:01;;;;;;;;;;;8.40;59.90;;;3.68;100.00;96019.25;4943128;28;20008;-48
2022/09/20 05:59:11;;;;;;;;;;;8.40;59.90;;;3.77;100.00;96023.25;4954390;28;20387;-50
2022/09/20 06:02:22;;;;;;;;;;;8.40;59.90;;;3.88;100.00;96033.13;4954415;28;19968;-51
2022/09/20 06:05:11;;;;;;;;;;;8.50;60.00;;;4.02;100.00;96031.22;4965357;28;19911;-47
2022/09/20 06:08:15;;;;;;;;;;;8.60;60.10;;;4.18;100.00;96035.19;4969253;28;19918;-51
2022/09/20 06:11:00;;;;;;;;;;;8.70;60.20;;;4.32;100.00;96039.34;4953012;28;19922;-46
2022/09/20 06:14:14;;;;;;;;;;;8.80;60.30;;;4.40;100.00;96039.09;4960252;28;19956;-51
2022/09/20 06:17:08;;;;;;;;;;;8.90;60.30;;;4.44;100.00;96034.19;4956120;28;20320;-46
2022/09/20 06:20:16;;;;;;;;;;;9.00;60.20;;;4.45;100.00;96034.97;4949780;28;19918;-46
2022/09/20 06:22:58;;;;;;;;;;;9.10;60.10;;;4.47;100.00;96036.38;4952862;28;20369;-45
2022/09/20 06:25:56;;;;;;;;;;;9.20;60.10;;;4.49;100.00;96037.00;4935595;28;19915;-49
2022/09/20 06:28:47;;;;;;;;;;;9.20;60.10;;;4.55;100.00;96041.41;4953744;28;19914;-44
2022/09/20 06:31:22;;;;;;;;;;;9.30;60.10;;;4.62;100.00;96030.81;4940180;28;19910;-47
2022/09/20 06:34:17;;;;;;;;;;;9.40;60.10;;;4.73;100.00;96045.13;4969130;28;20410;-44
2022/09/20 06:43:13;;;;;;;;;;;10.20;59.90;;;5.57;100.00;96047.09;4948585;28;19945;-47
2022/09/20 06:45:41;;;;;;;;;;;10.70;59.80;;;5.97;100.00;96048.50;4953230;28;19918;-49
2022/09/20 06:48:12;;;;;;;;;;;11.10;59.80;;;6.41;100.00;96057.03;4952336;28;20028;-51
2022/09/20 06:50:46;;;;;;;;;;;11.60;59.80;;;6.90;100.00;96055.03;4953879;28;19914;-46
2022/09/20 06:53:20;;;;;;;;;;;12.10;59.80;;;7.29;100.00;96050.06;4950476;28;19914;-49
2022/09/20 06:55:47;;;;;;;;;;;12.70;59.80;;;7.66;100.00;96050.59;4953054;28;19917;-46
2022/09/20 06:58:16;;;;;;;;;;;13.20;59.60;;;7.98;100.00;96040.34;4936160;28;20293;-47
2022/09/20 07:00:41;;;;;;;;;;;13.70;59.40;;;8.31;98.85;96062.72;4953568;28;19938;-48
2022/09/20 07:03:11;;;;;;;;;;;14.20;59.20;;;8.70;96.18;96053.03;4954247;28;20736;-49
2022/09/20 07:05:38;;;;;;;;;;;14.70;59.10;;;9.06;90.78;96052.78;4951271;28;19921;-47
2022/09/20 07:08:06;;;;;;;;;;;15.20;58.60;;;9.43;87.29;96045.91;4944807;28;20016;-51
2022/09/20 07:10:38;;;;;;;;;;;15.70;58.20;;;9.86;84.78;96057.59;4947636;28;19925;-47
2022/09/20 07:13:04;;;;;;;;;;;16.30;57.80;;;10.27;82.62;96055.41;4968865;28;19914;-49
2022/09/20 07:15:32;;;;;;;;;;;16.70;57.40;;;10.58;81.20;96056.53;4941081;28;19937;-48
2022/09/20 07:18:10;;;;;;;;;;;17.30;57.00;;;10.98;79.76;96057.13;4941422;28;19953;-50
2022/09/20 07:20:41;;;;;;;;;;;17.70;56.40;;;11.26;76.12;96056.00;4947269;28;20529;-49
2022/09/20 07:23:07;;;;;;;;;;;18.20;55.90;;;11.74;73.87;96057.59;4945855;28;20037;-54
2022/09/20 07:25:34;;;;;;;;;;;18.50;55.40;;;12.02;70.78;96052.94;4940854;28;20016;-52
2022/09/20 07:28:03;;;;;;;;;;;18.90;55.00;;;12.44;69.59;96059.97;4940940;28;19974;-52
2022/09/20 07:30:29;;;;;;;;;;;19.20;54.40;;;12.78;67.55;96052.25;4963017;28;20280;-47
2022/09/20 07:32:54;;;;;;;;;;;19.50;54.00;;;13.18;65.95;96062.16;4940706;28;19997;-47
2022/09/20 07:35:20;;;;;;;;;;;19.80;53.70;;;13.65;66.77;96063.72;4966828;28;20373;-47
2022/09/20 07:37:56;;;;;;;;;;;20.20;53.20;;;13.98;62.94;96066.03;4952748;28;19975;-48
2022/09/20 07:40:22;;;;;;;;;;;20.50;52.90;;;14.31;62.03;96070.69;4951210;28;19946;-49
2022/09/20 07:42:51;;;;;;;;;;;20.90;52.40;;;14.55;60.52;96067.38;4967610;28;19949;-50
2022/09/20 07:45:22;;;;;;;;;;;21.10;51.70;;;14.72;59.33;96070.47;4940241;28;20005;-50
2022/09/20 07:47:53;;;;;;;;;;;21.40;51.40;;;14.91;59.17;96067.13;4958271;28;19960;-51
2022/09/20 07:50:34;;;;;;;;;;;21.70;51.00;;;15.23;57.89;96074.63;4951805;28;19925;-48
2022/09/20 07:53:09;;;;;;;;;;;22.00;50.70;;;15.50;56.76;96074.91;4934598;28;19941;-52
2022/09/20 07:55:35;;;;;;;;;;;22.30;50.30;;;15.77;53.95;96070.94;4946361;28;20010;-49
2022/09/20 07:58:00;;;;;;;;;;;22.70;49.90;;;16.18;53.56;96075.81;4941402;28;20329;-51
2022/09/20 08:00:32;;;;;;;;;;;23.00;49.40;;;16.43;52.47;96078.19;4939451;28;19910;-52
2022/09/20 08:03:02;;;;;;;;;;;23.30;48.90;;;16.61;52.03;96075.81;4945038;28;20274;-49
2022/09/20 08:05:34;;;;;;;;;;;23.70;48.50;;;16.97;51.13;96075.28;4939908;28;19954;-50
2022/09/20 08:08:12;;;;;;;;;;;24.00;48.10;;;17.28;49.53;96087.16;4941827;28;19926;-49
2022/09/20 08:10:39;;;;;;;;;;;24.30;47.60;;;17.47;48.84;96080.94;4969954;23;19930;-48
2022/09/20 08:13:07;;;;;;;;;;;24.50;47.00;;;17.76;48.68;96080.66;4994163;28;20426;-52
2022/09/20 08:15:35;;;;;;;;;;;24.70;46.60;;;17.53;48.13;96079.75;5010946;28;19909;-51
2022/09/20 08:18:10;;;;;;;;;;;24.90;46.10;;;17.76;48.50;96094.94;4989890;28;20020;-52
2022/09/20 08:20:42;;;;;;;;;;;25.20;45.80;;;17.68;48.49;96092.16;4988652;28;19913;-53
2022/09/20 08:23:11;;;;;;;;;;;25.40;45.40;;;17.76;48.64;96088.75;4985668;28;19988;-46
2022/09/20 08:25:39;;;;;;;;;;;25.50;45.00;;;17.75;47.95;96090.66;4991691;28;20007;-52
2022/09/20 08:28:07;;;;;;;;;;;25.70;44.60;;;17.90;46.77;96097.69;4973962;28;20339;-50
2022/09/20 08:30:33;;;;;;;;;;;25.80;44.20;;;18.10;46.50;96090.31;4973012;28;19913;-53
2022/09/20 08:32:59;;;;;;;;;;;25.90;43.90;;;18.21;46.21;96095.19;4977014;28;19921;-50
2022/09/20 08:35:25;;;;;;;;;;;26.00;43.60;;;17.89;45.85;96097.97;4970640;28;19913;-51
2022/09/20 08:38:03;;;;;;;;;;;26.20;43.40;;;18.30;45.73;96099.88;4969016;28;19948;-47
2022/09/20 08:40:30;;;;;;;;;;;26.30;43.10;;;18.54;45.11;96094.25;4950839;28;19972;-48
2022/09/20 08:43:04;;;;;;;;;;;26.40;42.70;;;18.43;44.52;96094.47;4938702;28;20003;-51
2022/09/20 08:45:33;;;;;;;;;;;26.50;42.50;;;18.61;44.99;96098.13;4938895;28;19914;-51
2022/09/20 08:48:05;;;;;;;;;;;26.60;42.30;;;19.16;44.20;96095.28;4947603;29;19921;-52
2022/09/20 08:50:33;;;;;;;;;;;26.80;42.30;;;19.55;42.89;96096.47;4948011;28;20000;-50
2022/09/20 08:53:08;;;;;;;;;;;27.10;42.10;;;19.74;42.05;96085.50;4958352;28;19973;-51
2022/09/20 08:55:41;;;;;;;;;;;27.50;41.80;;;20.09;42.08;96094.56;4925412;29;19918;-49
2022/09/20 08:58:12;;;;;;;;;;;27.90;41.30;;;20.55;41.21;96085.13;4927786;28;19957;-51
2022/09/20 09:00:40;;;;;;;;;;;28.30;41.00;;;21.03;39.76;96091.56;4940095;28;19913;-47
2022/09/20 09:03:15;;;;;;;;;;;28.80;40.70;;;21.47;38.88;96087.72;4923027;28;19910;-50
2022/09/20 09:05:53;;;;;;;;;;;29.30;40.20;;;21.63;38.77;96087.22;4960094;28;19917;-50
2022/09/20 09:08:29;;;;;;;;;;;29.70;39.70;;;21.62;39.16;96083.72;4921454;28;21275;-50
2022/09/20 09:11:08;;;;;;;;;;;30.20;39.20;;;21.79;37.85;96079.34;4944490;28;20399;-52
2022/09/20 09:13:53;;;;;;;;;;;30.50;38.60;;;21.54;36.45;96087.22;4972154;28;20033;-48
2022/09/20 09:16:23;;;;;;;;;;;30.50;38.20;;;20.69;37.77;96081.53;4969938;28;19977;-47
2022/09/20 09:18:50;;;;;;;;;;;30.10;38.00;;;20.05;39.87;96087.38;4986416;28;19916;-52
2022/09/20 09:21:28;;;;;;;;;;;29.40;37.90;;;19.72;39.17;96085.00;4972773;28;20307;-48
2022/09/20 09:24:08;;;;;;;;;;;28.60;37.90;;;19.12;39.57;96088.91;4953950;28;19921;-47
2022/09/20 09:26:39;;;;;;;;;;;27.90;38.10;;;18.80;41.07;96084.50;4969613;28;19913;-47
2022/09/20 09:29:14;;;;;;;;;;;27.30;38.30;;;18.15;42.35;96085.63;4949555;28;20387;-48
2022/09/20 09:31:40;;;;;;;;;;;26.60;38.40;;;18.02;41.80;96086.41;4975694;28;19909;-51
2022/09/20 09:34:37;;;;;;;;;;;26.00;38.60;;;17.77;43.23;96082.31;4935542;28;19910;-51
2022/09/20 09:37:03;;;;;;;;;;;25.40;38.80;;;17.46;44.70;96080.13;4973868;28;19910;-48
2022/09/20 09:39:36;;;;;;;;;;;24.90;39.00;;;17.52;45.22;96080.84;4973506;28;19913;-52
2022/09/20 09:42:27;;;;;;;;;;;24.40;39.20;;;17.28;45.12;96076.41;4974019;28;20413;-49
2022/09/20 09:45:37;;;;;;;;;;;24.00;39.50;;;16.87;46.04;96078.94;4973563;28;19910;-51
2022/09/20 09:48:26;;;;;;;;;;;23.70;39.70;;;16.54;46.76;96069.97;4972015;28;19959;-50
2022/09/20 09:51:14;;;;;;;;;;;23.30;39.80;;;16.32;47.32;96076.69;4957589;28;19960;-50
2022/09/20 09:53:46;;;;;;;;;;;22.90;39.90;;;16.17;47.27;96069.66;4965248;28;19917;-53
2022/09/20 09:57:05;;;;;;;;;;;22.70;40.00;;;15.87;47.49;96070.81;4954225;28;20741;-49
2022/09/20 09:59:58;;;;;;;;;;;22.40;39.90;;;15.71;46.97;96075.53;4910878;29;19921;-47
2022/09/20 10:03:17;;;;;;;;;;;22.00;40.20;;;15.46;47.27;96076.56;4914907;29;19917;-49
2022/09/20 10:05:49;;;;;;;;;;;21.70;40.30;;;15.47;47.68;96070.13;4963294;28;19913;-49
2022/09/20 10:09:05;;;;;;;;;;;21.60;40.50;;;15.27;47.62;96073.78;4955513;28;20017;-49
2022/09/20 10:12:01;;;;;;;;;;;21.40;40.40;;;15.29;49.05;96070.81;4962085;28;19918;-51
2022/09/20 10:14:59;;;;;;;;;;;21.40;40.40;;;15.73;46.65;96062.66;4973281;28;20380;-47
2022/09/20 10:18:11;;;;;;;;;;;21.80;40.10;;;16.31;44.94;96055.50;4965667;28;19909;-47
2022/09/20 10:21:04;;;;;;;;;;;22.50;39.90;;;17.02;44.13;96051.00;4974125;28;19976;-51
2022/09/20 10:24:03;;;;;;;;;;;23.20;39.50;;;17.43;40.83;96063.78;4973658;28;20376;-52
2022/09/20 10:26:36;;;;;;;;;;;23.90;39.00;;;18.08;40.95;96063.63;4956292;28;19909;-52
2022/09/20 10:29:39;;;;;;;;;;;24.50;38.40;;;18.59;38.56;96057.19;4955658;28;20344;-52
2022/09/20 10:32:58;;;;;;;;;;;25.10;38.10;;;19.08;38.40;96050.13;4973568;28;19909;-48
2022/09/20 10:35:59;;;;;;;;;;;25.80;37.80;;;19.48;39.10;96047.50;4931108;28;19910;-52
2022/09/20 10:39:00;;;;;;;;;;;26.50;37.20;;;19.91;38.29;96046.13;4973643;28;19909;-49
2022/09/20 10:45:28;;;;;;;;;;;27.60;36.40;;;20.36;36.52;96054.03;4973672;28;19960;-53
2022/09/20 10:48:28;;;;;;;;;;;28.10;35.90;;;20.29;38.00;96044.50;4938402;28;19914;-51
2022/09/20 10:51:32;;;;;;;;;;;28.40;35.40;;;20.34;37.33;96046.25;4952613;28;19941;-48
2022/09/20 10:54:38;;;;;;;;;;;28.60;35.00;;;20.59;37.30;96049.31;4955598;28;19910;-51
2022/09/20 10:57:56;;;;;;;;;;;28.70;34.60;;;20.43;35.45;96041.66;4972879;28;19925;-51
2022/09/20 11:01:22;;;;;;;;;;;28.90;34.60;;;20.68;34.44;96042.84;4951388;28;20024;-52
2022/09/20 11:04:26;;;;;;;;;;;29.20;34.40;;;21.38;34.24;96035.47;4919872;28;20289;-48
2022/09/20 11:07:09;;;;;;;;;;;29.50;34.20;;;21.92;33.60;96045.78;4953401;28;20298;-54
2022/09/20 11:09:43;;;;;;;;;;;29.80;34.00;;;22.24;32.78;96044.38;4943901;28;19941;-53
2022/09/20 11:12:43;;;;;;;;;;;30.20;33.90;;;22.70;33.61;96045.38;4966910;28;19922;-52
2022/09/20 11:15:45;;;;;;;;;;;30.70;33.80;;;22.72;31.51;96043.13;4927111;28;19936;-52
2022/09/20 11:18:22;;;;;;;;;;;31.10;33.20;;;22.29;34.55;96040.69;4971034;28;19921;-52
2022/09/20 11:21:27;;;;;;;;;;;31.30;32.60;;;22.15;33.43;96044.38;4972823;28;19917;-50
2022/09/20 11:24:19;;;;;;;;;;;31.30;32.10;;;22.03;33.15;96038.06;4959998;28;20350;-51
2022/09/20 11:27:17;;;;;;;;;;;31.30;31.90;;;22.21;33.51;96038.81;4953462;28;19921;-48
2022/09/20 11:30:08;;;;;;;;;;;31.30;31.80;;;22.77;33.32;96029.31;4961447;28;19913;-49
2022/09/20 11:33:04;;;;;;;;;;;31.60;32.00;;;22.94;33.89;96038.47;4961408;28;19959;-48
2022/09/20 11:35:47;;;;;;;;;;;31.90;32.00;;;23.30;32.58;96033.19;4950133;28;19914;-50
2022/09/20 11:38:33;;;;;;;;;;;32.20;31.80;;;23.53;31.88;96030.06;4953666;28;19973;-54
2022/09/20 11:41:14;;;;;;;;;;;32.40;31.60;;;23.36;31.51;96033.78;4959485;28;20051;-52
2022/09/20 11:43:47;;;;;;;;;;;32.60;31.40;;;22.66;34.15;96040.91;4952025;28;19910;-52
2022/09/20 11:46:42;;;;;;;;;;;32.60;30.90;;;22.55;33.17;96035.09;4951832;28;20388;-48
2022/09/20 11:49:42;;;;;;;;;;;32.70;30.90;;;22.63;33.44;96039.69;4971144;28;19925;-51
2022/09/20 11:52:51;;;;;;;;;;;32.20;31.10;;;22.04;33.74;96031.53;4971331;28;19914;-50
2022/09/20 11:55:38;;;;;;;;;;;31.60;30.80;;;22.56;31.50;96036.66;4953343;28;19960;-47
2022/09/20 11:58:15;;;;;;;;;;;31.70;31.00;;;23.23;30.77;96037.59;4957818;28;20323;-50
2022/09/20 12:00:46;;;;;;;;;;;32.00;30.90;;;23.76;29.38;96020.41;4965684;28;19953;-50
2022/09/20 12:03:40;;;;;;;;;;;32.50;30.80;;;23.94;29.50;96021.00;4959302;28;19917;-51
2022/09/20 12:06:24;;;;;;;;;;;33.10;30.60;;;23.30;31.53;96018.81;4985100;28;19909;-52
2022/09/20 12:08:56;;;;;;;;;;;33.00;30.20;;;22.38;33.28;96027.88;5006629;28;19921;-53
2022/09/20 12:11:34;;;;;;;;;;;32.40;29.90;;;21.80;33.60;96022.06;4981687;28;19972;-50
2022/09/20 12:14:22;;;;;;;;;;;31.70;29.70;;;21.36;34.53;96024.13;4956038;28;19914;-51
2022/09/20 12:16:52;;;;;;;;;;;30.80;29.60;;;21.34;34.62;96023.66;4938705;28;20291;-54
2022/09/20 12:19:33;;;;;;;;;;;30.10;29.90;;;20.98;34.10;96019.41;4942130;28;20000;-49
2022/09/20 12:22:07;;;;;;;;;;;29.50;30.00;;;20.86;34.60;96015.75;4957990;28;19910;-53
2022/09/20 12:24:39;;;;;;;;;;;29.00;30.20;;;20.88;34.50;96017.03;4951536;28;19920;-51
2022/09/20 12:27:25;;;;;;;;;;;28.80;30.40;;;20.91;32.25;96018.31;4938619;28;19956;-51
2022/09/20 12:30:02;;;;;;;;;;;29.00;30.40;;;20.82;32.72;96012.88;4971234;28;20008;-47
2022/09/20 12:32:44;;;;;;;;;;;29.50;30.30;;;21.22;32.14;96008.06;4956329;28;19975;-49
2022/09/20 12:35:35;;;;;;;;;;;30.10;30.10;;;21.70;30.86;96006.19;4956331;28;19910;-50
2022/09/20 12:38:22;;;;;;;;;;;30.80;30.00;;;21.90;30.28;96005.44;4935174;29;19953;-52
2022/09/20 12:41:12;;;;;;;;;;;31.20;29.80;;;22.01;29.99;96007.78;4952291;29;19917;-52
2022/09/20 12:44:02;;;;;;;;;;;31.00;29.60;;;21.93;31.36;96007.50;4968867;28;19913;-52
2022/09/20 12:46:35;;;;;;;;;;;30.50;29.40;;;21.92;31.40;96005.91;4950764;28;20393;-51
2022/09/20 12:52:59;;;;;;;;;;;29.50;29.40;;;21.24;33.65;96007.72;4991144;28;19955;-50
2022/09/20 12:55:55;;;;;;;;;;;28.90;29.60;;;20.92;34.36;96003.63;4991468;28;20429;-54
2022/09/20 12:58:50;;;;;;;;;;;28.40;29.70;;;20.24;34.45;95998.66;4984105;28;19910;-54
2022/09/20 13:01:32;;;;;;;;;;;28.00;29.80;;;19.93;36.23;96004.19;4989389;28;19916;-54
2022/09/20 13:04:50;;;;;;;;;;;27.50;29.80;;;19.48;35.75;96004.28;4973929;28;19910;-52
2022/09/20 13:07:58;;;;;;;;;;;27.10;29.80;;;18.65;37.14;95991.22;4980384;28;20402;-49
2022/09/20 13:10:30;;;;;;;;;;;26.70;29.80;;;18.42;38.69;96001.16;4947937;28;19917;-50
2022/09/20 13:13:22;;;;;;;;;;;26.20;29.80;;;18.27;38.78;96001.53;4954067;28;19988;-54
2022/09/20 13:15:52;;;;;;;;;;;25.70;29.90;;;18.17;38.10;95999.81;4987534;28;19955;-47